Time;durP1;ratioP1;P1;durP2;ratioP2;P2;SDS_P1;SDS_P2;PMS_P1;PMS_P2;Temp;Humidity;BMP_temperature;BMP_pressure;BME280_temperature;BME280_humidity;BME280_pressure;Samples;Min_cycle;Max_cycle;Signal;HPM_P1;HPM_P2
2021/12/13 00:01:27;;;;;;;78.30;28.70;;;;;;;-0.28;72.90;101071.76;126917;1310;109076;-79
2021/12/13 00:04:37;;;;;;;78.80;29.10;;;;;;;-0.28;72.65;101071.94;126708;1310;108762;-80
2021/12/13 00:07:45;;;;;;;98.80;35.20;;;;;;;-0.32;72.66;101071.39;126671;1310;108670;-80
2021/12/13 00:10:53;;;;;;;77.70;28.80;;;;;;;-0.34;72.57;101070.08;126661;1311;107121;-82
2021/12/13 00:14:10;;;;;;;72.90;26.20;;;;;;;-0.42;72.65;101067.41;126685;1313;107000;-81
2021/12/13 00:17:24;;;;;;;74.50;26.80;;;;;;;-0.48;72.47;101071.50;126805;1310;108742;-83
2021/12/13 00:20:37;;;;;;;72.60;26.40;;;;;;;-0.54;72.54;101067.41;126683;1310;108905;-79
2021/12/13 00:23:50;;;;;;;73.20;26.00;;;;;;;-0.59;72.63;101071.64;126778;1310;108610;-79
2021/12/13 00:27:06;;;;;;;71.40;26.00;;;;;;;-0.66;72.82;101081.68;126616;1310;108863;-79
2021/12/13 00:30:21;;;;;;;85.70;27.80;;;;;;;-0.73;72.75;101094.52;126724;1310;108711;-81
2021/12/13 00:33:46;;;;;;;68.50;23.40;;;;;;;-0.76;72.78;101096.05;126838;1311;108782;-80
2021/12/13 00:36:56;;;;;;;65.00;22.60;;;;;;;-0.74;72.79;101088.98;126919;1310;109425;-81
2021/12/13 00:40:06;;;;;;;65.10;22.00;;;;;;;-0.71;72.88;101090.42;126968;1311;108912;-81
2021/12/13 00:43:16;;;;;;;62.50;23.00;;;;;;;-0.68;72.54;101094.68;126790;1310;107463;-80
2021/12/13 00:46:23;;;;;;;65.30;24.10;;;;;;;-0.67;72.55;101093.08;126659;1314;108847;-80
2021/12/13 00:49:32;;;;;;;57.90;21.20;;;;;;;-0.66;72.65;101090.56;126700;1310;109083;-80
2021/12/13 00:52:42;;;;;;;60.10;21.70;;;;;;;-0.67;72.33;101095.37;126681;1311;109767;-80
2021/12/13 00:55:49;;;;;;;62.90;22.80;;;;;;;-0.70;72.31;101096.49;126768;1311;108787;-79
2021/12/13 00:58:56;;;;;;;58.50;21.40;;;;;;;-0.71;72.43;101100.23;126607;1311;108947;-80
2021/12/13 01:02:07;;;;;;;54.40;20.20;;;;;;;-0.78;72.33;101112.91;126580;1311;107839;-78
2021/12/13 01:05:16;;;;;;;60.00;21.60;;;;;;;-0.84;72.13;101116.27;126571;1314;108995;-78
2021/12/13 01:08:51;;;;;;;57.30;21.40;;;;;;;-0.86;72.32;101113.19;126650;1310;108704;-77
2021/12/13 01:11:59;;;;;;;52.10;19.60;;;;;;;-0.92;72.37;101107.34;126421;1317;108775;-79
2021/12/13 01:15:13;;;;;;;52.00;19.60;;;;;;;-1.00;72.47;101104.28;126728;1313;109036;-78
2021/12/13 01:18:28;;;;;;;54.40;20.40;;;;;;;-1.08;71.95;101104.09;126624;1310;108409;-80
2021/12/13 01:21:43;;;;;;;61.20;21.30;;;;;;;-1.16;72.04;101110.31;126719;1314;108993;-78
2021/12/13 01:25:16;;;;;;;60.30;21.40;;;;;;;-1.17;72.39;101106.31;126639;1311;108890;-79
2021/12/13 01:28:26;;;;;;;57.00;19.60;;;;;;;-1.16;72.29;101112.23;126960;1311;108573;-79
2021/12/13 01:31:35;;;;;;;50.30;18.70;;;;;;;-1.13;72.10;101105.83;126739;1313;108792;-80
2021/12/13 01:34:41;;;;;;;49.50;18.20;;;;;;;-1.07;72.10;101106.84;126801;1313;108693;-80
2021/12/13 01:37:52;;;;;;;46.80;19.40;;;;;;;-1.00;71.73;101118.97;127024;1313;108661;-80
2021/12/13 01:40:59;;;;;;;44.40;18.40;;;;;;;-0.97;71.91;101114.34;127005;1311;108660;-80
2021/12/13 01:44:08;;;;;;;47.30;18.60;;;;;;;-0.98;71.78;101120.79;126915;1314;108794;-82
2021/12/13 01:47:18;;;;;;;45.80;18.00;;;;;;;-1.01;71.56;101118.29;126983;1310;107678;-81
2021/12/13 01:50:31;;;;;;;41.30;17.40;;;;;;;-1.09;71.52;101115.28;126569;1312;108824;-80
2021/12/13 01:53:42;;;;;;;37.60;15.80;;;;;;;-1.18;71.35;101109.50;126945;1310;108402;-78
2021/12/13 01:56:56;;;;;;;35.00;15.90;;;;;;;-1.24;71.34;101112.18;127081;1310;107226;-78
2021/12/13 02:00:08;;;;;;;41.90;18.10;;;;;;;-1.32;71.30;101108.45;126833;1310;106703;-77
2021/12/13 02:03:18;;;;;;;40.30;17.30;;;;;;;-1.43;71.38;101109.36;127023;1311;108744;-80
2021/12/13 02:06:41;;;;;;;41.80;16.40;;;;;;;-1.51;71.38;101105.47;127012;1311;108896;-81
2021/12/13 02:09:47;;;;;;;40.80;17.10;;;;;;;-1.55;71.58;101097.61;126762;1316;106800;-80
2021/12/13 02:12:58;;;;;;;40.20;17.70;;;;;;;-1.59;71.55;101099.11;126513;1316;108847;-79
2021/12/13 02:19:38;;;;;;;49.60;18.80;;;;;;;-1.68;71.71;101101.52;126586;1316;108559;-79
2021/12/13 02:22:46;;;;;;;44.10;18.20;;;;;;;-1.73;71.62;101099.45;126606;1316;108458;-79
2021/12/13 02:25:57;;;;;;;45.30;18.50;;;;;;;-1.76;71.44;101104.42;126798;1317;108826;-79
2021/12/13 02:29:08;;;;;;;55.10;18.80;;;;;;;-1.77;71.44;101105.52;126530;1314;108813;-79
2021/12/13 02:32:14;;;;;;;46.10;17.50;;;;;;;-1.77;71.80;101093.47;126814;1310;109777;-79
2021/12/13 02:35:23;;;;;;;45.40;18.00;;;;;;;-1.74;71.43;101089.20;126504;1317;107850;-78
2021/12/13 02:38:29;;;;;;;39.80;15.80;;;;;;;-1.71;71.36;101085.41;126946;1311;109880;-78
2021/12/13 02:41:37;;;;;;;43.90;17.00;;;;;;;-1.67;71.44;101083.20;126971;1314;108910;-77
2021/12/13 02:44:48;;;;;;;44.80;17.90;;;;;;;-1.68;71.18;101079.89;126991;1310;109023;-78
2021/12/13 02:48:01;;;;;;;42.50;17.80;;;;;;;-1.62;71.62;101080.92;126921;1316;108762;-77
2021/12/13 02:51:10;;;;;;;44.70;17.70;;;;;;;-1.60;71.26;101078.05;126619;1316;109949;-80
2021/12/13 02:54:21;;;;;;;46.80;18.20;;;;;;;-1.62;71.24;101074.45;126506;1313;108737;-79
2021/12/13 02:57:35;;;;;;;42.10;17.80;;;;;;;-1.65;71.32;101070.73;126945;1314;106790;-79
2021/12/13 03:00:48;;;;;;;42.50;16.90;;;;;;;-1.74;71.85;101072.61;126464;1317;108905;-81
2021/12/13 03:03:59;;;;;;;44.30;18.60;;;;;;;-1.79;71.51;101081.69;126814;1317;108906;-78
2021/12/13 03:07:08;;;;;;;42.40;17.40;;;;;;;-1.83;71.64;101080.97;126954;1317;108706;-76
2021/12/13 03:10:20;;;;;;;41.60;17.10;;;;;;;-1.88;71.71;101080.95;126856;1316;107585;-76
2021/12/13 03:13:26;;;;;;;40.30;17.00;;;;;;;-1.94;71.69;101079.59;126438;1313;108739;-74
2021/12/13 03:16:40;;;;;;;39.10;15.70;;;;;;;-1.97;71.81;101087.02;126505;1316;108772;-77
2021/12/13 03:20:01;;;;;;;41.20;16.50;;;;;;;-2.01;71.83;101084.20;126422;1310;107836;-76
2021/12/13 03:23:31;;;;;;;45.50;16.50;;;;;;;-2.05;71.90;101085.90;126739;1316;108695;-77
2021/12/13 03:27:02;;;;;;;43.20;16.90;;;;;;;-2.06;71.97;101091.16;126991;1317;108823;-76
2021/12/13 03:30:11;;;;;;;40.40;14.60;;;;;;;-2.01;71.94;101083.66;126515;1316;108549;-75
2021/12/13 03:33:20;;;;;;;42.90;16.50;;;;;;;-1.96;71.81;101081.05;126505;1317;108691;-77
2021/12/13 03:36:44;;;;;;;38.90;14.50;;;;;;;-1.90;71.95;101081.89;126670;1316;108072;-75
2021/12/13 03:39:52;;;;;;;39.40;14.90;;;;;;;-1.82;71.95;101071.85;126556;1316;108840;-73
2021/12/13 03:43:05;;;;;;;37.70;14.70;;;;;;;-1.72;71.80;101073.79;126554;1317;108640;-76
2021/12/13 03:46:13;;;;;;;34.80;14.40;;;;;;;-1.70;71.62;101073.70;126439;1316;107567;-77
2021/12/13 03:49:20;;;;;;;35.10;13.90;;;;;;;-1.71;71.72;101081.08;126492;1317;108906;-75
2021/12/13 03:52:30;;;;;;;35.10;13.60;;;;;;;-1.75;71.26;101083.97;126714;1316;108803;-74
2021/12/13 03:55:39;;;;;;;32.60;13.80;;;;;;;-1.84;71.63;101080.14;126411;1316;108831;-75
2021/12/13 03:58:49;;;;;;;31.60;13.10;;;;;;;-1.89;71.46;101076.45;126424;1317;108781;-75
2021/12/13 04:01:58;;;;;;;31.20;13.70;;;;;;;-1.94;71.12;101077.67;126833;1317;108881;-81
2021/12/13 04:05:10;;;;;;;32.50;13.40;;;;;;;-1.98;71.47;101081.46;126572;1317;106774;-75
2021/12/13 04:08:18;;;;;;;32.20;12.80;;;;;;;-2.00;71.36;101081.73;126744;1316;108797;-78
2021/12/13 04:11:25;;;;;;;34.90;13.20;;;;;;;-2.03;71.41;101075.20;126970;1316;108828;-78
2021/12/13 04:14:37;;;;;;;40.60;20.60;;;;;;;-2.05;71.43;101079.79;127285;1316;108854;-78
2021/12/13 04:17:56;;;;;;;33.20;14.70;;;;;;;-2.08;71.50;101073.63;127001;1316;108514;-77
2021/12/13 04:21:05;;;;;;;31.20;13.00;;;;;;;-2.09;71.48;101075.75;127004;1310;108709;-78
2021/12/13 04:24:14;;;;;;;35.10;14.00;;;;;;;-2.09;71.62;101077.83;126882;1317;109726;-78
2021/12/13 04:27:23;;;;;;;34.70;14.70;;;;;;;-2.08;71.50;101080.26;126607;1317;108667;-76
2021/12/13 04:30:33;;;;;;;36.70;13.70;;;;;;;-2.06;71.17;101081.38;126823;1317;108869;-79
2021/12/13 04:33:43;;;;;;;37.50;13.50;;;;;;;-2.02;71.36;101085.10;126997;1311;107685;-80
2021/12/13 04:36:51;;;;;;;33.90;12.60;;;;;;;-1.95;71.51;101082.24;126516;1316;108945;-78
2021/12/13 04:40:01;;;;;;;35.50;13.50;;;;;;;-1.88;71.41;101079.40;126903;1316;108757;-78
2021/12/13 04:43:10;;;;;;;34.10;13.60;;;;;;;-1.84;71.24;101079.77;126488;1313;109076;-79
2021/12/13 04:46:19;;;;;;;33.70;13.30;;;;;;;-1.80;71.61;101082.77;126876;1314;109810;-78
2021/12/13 04:49:27;;;;;;;30.70;12.50;;;;;;;-1.80;71.44;101088.18;126431;1313;108847;-78
2021/12/13 04:52:34;;;;;;;27.00;12.40;;;;;;;-1.88;71.25;101094.38;126812;1314;108805;-77
2021/12/13 04:55:43;;;;;;;28.70;12.30;;;;;;;-1.89;71.54;101087.10;126588;1316;109102;-77
2021/12/13 04:58:50;;;;;;;30.10;11.70;;;;;;;-1.90;71.60;101092.16;126407;1314;108675;-79
2021/12/13 05:01:59;;;;;;;31.20;12.40;;;;;;;-1.95;71.56;101094.09;126434;1314;108789;-78
2021/12/13 05:05:07;;;;;;;29.60;12.00;;;;;;;-1.98;71.69;101094.17;126876;1310;108796;-78
2021/12/13 05:08:15;;;;;;;29.30;12.00;;;;;;;-2.01;71.46;101089.95;126552;1313;108576;-78
2021/12/13 05:11:21;;;;;;;32.20;12.40;;;;;;;-2.07;71.29;101099.90;126931;1310;109119;-77
2021/12/13 05:14:38;;;;;;;29.70;12.10;;;;;;;-2.10;71.40;101103.12;126864;1316;109012;-78
2021/12/13 05:17:46;;;;;;;31.30;13.00;;;;;;;-2.12;71.65;101101.10;126461;1313;108787;-78
2021/12/13 05:21:00;;;;;;;29.90;13.10;;;;;;;-2.12;71.50;101098.88;126443;1313;108817;-80
2021/12/13 05:24:11;;;;;;;33.30;13.60;;;;;;;-2.18;71.38;101090.34;126634;1316;107730;-77
2021/12/13 05:27:26;;;;;;;32.50;13.40;;;;;;;-2.25;71.44;101090.55;126353;1313;108757;-79
2021/12/13 05:30:33;;;;;;;33.70;14.50;;;;;;;-2.25;71.73;101094.24;126682;1311;109413;-78
2021/12/13 05:33:41;;;;;;;31.90;12.20;;;;;;;-2.20;71.58;101093.02;126771;1310;108806;-78
2021/12/13 05:36:56;;;;;;;28.30;11.60;;;;;;;-2.10;71.50;101092.86;126949;1311;108856;-78
2021/12/13 05:40:06;;;;;;;32.50;12.30;;;;;;;-2.01;71.54;101102.84;126924;1311;108902;-79
2021/12/13 05:43:24;;;;;;;31.50;13.40;;;;;;;-1.92;71.50;101107.09;126963;1311;108728;-76
2021/12/13 05:46:47;;;;;;;29.10;12.20;;;;;;;-1.92;71.23;101112.68;126479;1310;108959;-78
2021/12/13 05:49:53;;;;;;;28.90;12.30;;;;;;;-1.97;71.54;101110.19;126559;1313;108892;-78
2021/12/13 05:53:07;;;;;;;34.10;12.90;;;;;;;-1.99;71.39;101112.88;126669;1311;107427;-78
2021/12/13 05:56:16;;;;;;;30.40;13.50;;;;;;;-2.01;71.43;101116.80;126740;1316;108845;-79
2021/12/13 05:59:25;;;;;;;37.50;14.40;;;;;;;-1.99;71.47;101117.94;126602;1310;108811;-77
2021/12/13 06:03:02;;;;;;;33.50;14.50;;;;;;;-2.00;71.54;101118.50;126536;1314;108886;-77
2021/12/13 06:06:12;;;;;;;32.30;13.90;;;;;;;-2.02;71.46;101125.91;126794;1314;108948;-78
2021/12/13 06:12:55;;;;;;;37.40;14.80;;;;;;;-2.04;71.41;101127.89;122883;1351;636067;-78
2021/12/13 06:16:01;;;;;;;34.20;14.50;;;;;;;-2.11;71.55;101131.24;125776;1322;109033;-78
2021/12/13 06:19:11;;;;;;;35.80;14.50;;;;;;;-2.12;71.55;101136.52;125797;1322;108950;-80
2021/12/13 06:22:22;;;;;;;44.60;15.90;;;;;;;-2.13;71.42;101142.30;125566;1325;108836;-77
2021/12/13 06:25:29;;;;;;;42.30;15.70;;;;;;;-2.15;71.64;101146.55;125317;1319;158078;-77
2021/12/13 06:28:37;;;;;;;45.20;17.10;;;;;;;-2.12;71.58;101151.86;125945;1317;108927;-78
2021/12/13 06:31:45;;;;;;;41.20;16.10;;;;;;;-2.07;71.59;101153.27;126558;1310;108809;-79
2021/12/13 06:34:51;;;;;;;38.00;14.60;;;;;;;-1.96;71.92;101156.55;126546;1313;108727;-78
2021/12/13 06:37:57;;;;;;;38.60;14.90;;;;;;;-1.88;71.75;101156.80;126676;1309;108898;-76
2021/12/13 06:41:10;;;;;;;41.30;16.10;;;;;;;-1.82;71.87;101159.41;126460;1311;108864;-77
2021/12/13 06:44:25;;;;;;;40.10;15.60;;;;;;;-1.77;71.63;101162.73;126730;1312;108843;-77
2021/12/13 06:47:30;;;;;;;40.60;15.70;;;;;;;-1.74;71.72;101165.58;126494;1316;108347;-77
2021/12/13 06:50:38;;;;;;;41.80;15.50;;;;;;;-1.73;71.49;101160.84;126372;1312;108824;-77
2021/12/13 06:54:02;;;;;;;40.20;16.40;;;;;;;-1.75;71.71;101167.19;126664;1316;108790;-77
2021/12/13 06:57:13;;;;;;;44.70;19.20;;;;;;;-1.76;71.58;101169.68;126416;1316;108904;-80
2021/12/13 07:00:29;;;;;;;37.90;16.10;;;;;;;-1.77;71.63;101178.61;126765;1313;108981;-76
2021/12/13 07:03:34;;;;;;;31.00;13.70;;;;;;;-1.77;71.79;101182.80;126654;1316;108183;-75
2021/12/13 07:06:41;;;;;;;32.50;14.30;;;;;;;-1.79;71.98;101185.63;126437;1313;109760;-77
2021/12/13 07:09:56;;;;;;;33.20;14.60;;;;;;;-1.78;71.59;101194.67;126559;1312;108620;-75
2021/12/13 07:13:05;;;;;;;34.20;14.40;;;;;;;-1.77;71.67;101197.43;126874;1311;109505;-75
2021/12/13 07:16:13;;;;;;;36.80;13.90;;;;;;;-1.74;71.48;101195.43;126747;1312;108728;-75
2021/12/13 07:19:22;;;;;;;33.70;14.20;;;;;;;-1.73;71.61;101198.86;126792;1309;108766;-77
2021/12/13 07:22:29;;;;;;;38.30;14.60;;;;;;;-1.73;71.67;101202.20;126662;1310;108873;-77
2021/12/13 07:25:41;;;;;;;36.30;14.10;;;;;;;-1.74;71.73;101203.46;126673;1309;108947;-76
2021/12/13 07:28:53;;;;;;;38.60;14.50;;;;;;;-1.68;71.90;101200.09;126547;1309;108385;-76
2021/12/13 07:32:05;;;;;;;;;;;;;;;-1.59;71.90;101194.72;126723;1309;108701;-74
2021/12/13 07:35:14;;;;;;;30.90;12.10;;;;;;;-1.52;71.69;101193.45;126698;1310;108822;-74
2021/12/13 07:38:26;;;;;;;38.50;14.00;;;;;;;-1.45;71.72;101196.00;126731;1309;108824;-76
2021/12/13 07:41:40;;;;;;;;;;;;;;;-1.37;71.45;101201.48;126614;1309;109116;-76
2021/12/13 07:44:48;;;;;;;30.00;12.50;;;;;;;-1.35;71.41;101197.76;126420;1310;108949;-77
2021/12/13 07:47:55;;;;;;;32.80;13.90;;;;;;;-1.33;71.38;101202.75;126489;1310;108810;-77
2021/12/13 07:51:11;;;;;;;32.40;13.60;;;;;;;-1.35;71.59;101206.33;126671;1309;108935;-74
2021/12/13 08:11:06;;;;;;;50.50;20.80;;;;;;;-0.95;71.49;101220.78;122799;1354;649533;-75
2021/12/13 08:14:13;;;;;;;45.30;19.60;;;;;;;-0.75;71.43;101220.20;125753;1316;122611;-75
2021/12/13 08:17:25;;;;;;;48.20;19.40;;;;;;;-0.67;71.26;101218.52;125933;1320;106744;-74
2021/12/13 08:20:36;;;;;;;50.40;20.00;;;;;;;-0.64;71.28;101222.08;126550;1313;108807;-76
2021/12/13 08:23:47;;;;;;;54.20;20.50;;;;;;;-0.65;71.38;101224.36;126542;1312;108927;-75
2021/12/13 08:27:00;;;;;;;46.40;19.40;;;;;;;-0.66;71.53;101226.52;126555;1313;108903;-74
2021/12/13 08:30:13;;;;;;;49.90;19.30;;;;;;;-0.66;71.14;101231.25;126503;1313;107834;-75
2021/12/13 08:33:24;;;;;;;45.30;19.60;;;;;;;-0.64;71.27;101231.02;126495;1312;108724;-74
2021/12/13 08:36:33;;;;;;;50.90;20.00;;;;;;;-0.65;71.33;101229.81;126557;1312;108920;-77
2021/12/13 08:39:39;;;;;;;43.80;18.30;;;;;;;-0.72;71.23;101224.65;126485;1312;108779;-78
2021/12/13 08:42:47;;;;;;;50.00;19.30;;;;;;;-0.74;71.25;101228.73;126576;1312;108733;-78
2021/12/13 08:45:57;;;;;;;46.70;19.30;;;;;;;-0.78;71.20;101231.36;126556;1312;108913;-78
2021/12/13 08:49:12;;;;;;;88.30;37.10;;;;;;;-0.89;71.25;101235.39;126447;1313;108904;-78
2021/12/13 08:52:27;;;;;;;61.00;22.80;;;;;;;-0.94;71.15;101236.30;126571;1312;107919;-77
2021/12/13 08:55:37;;;;;;;54.80;22.80;;;;;;;-0.93;71.29;101238.33;126459;1312;108900;-76
2021/12/13 08:58:53;;;;;;;49.20;19.50;;;;;;;-0.87;71.41;101238.31;126605;1313;108995;-78
2021/12/13 09:02:06;;;;;;;44.60;18.20;;;;;;;-0.81;70.99;101239.10;126600;1313;108852;-77
2021/12/13 09:05:13;;;;;;;;;;;;;;;-0.74;71.30;101233.80;126704;1312;108707;-76
2021/12/13 09:08:25;;;;;;;47.90;23.70;;;;;;;-0.61;71.13;101230.19;126692;1312;108842;-78
2021/12/13 09:11:35;;;;;;;44.50;19.70;;;;;;;-0.59;70.88;101233.42;126471;1313;107954;-80
2021/12/13 09:14:50;;;;;;;51.60;24.50;;;;;;;-0.56;71.00;101228.09;126572;1316;108777;-79
2021/12/13 09:17:57;;;;;;;43.40;19.50;;;;;;;-0.55;70.82;101225.41;126548;1313;107738;-77
2021/12/13 09:21:05;;;;;;;35.80;16.90;;;;;;;-0.59;70.92;101233.94;126192;1313;108795;-77
2021/12/13 09:24:12;;;;;;;57.50;23.90;;;;;;;-0.56;71.28;101230.88;126522;1312;108891;-76
2021/12/13 10:04:13;;;;;;;51.60;26.00;;;;;;;0.01;70.41;101237.41;122716;1355;648571;-79
2021/12/13 10:07:22;;;;;;;86.40;35.60;;;;;;;0.20;70.32;101238.23;125505;1316;249906;-79
2021/12/13 10:10:35;;;;;;;60.20;25.90;;;;;;;0.25;70.35;101239.25;125999;1319;108926;-77
2021/12/13 10:13:42;;;;;;;49.70;20.70;;;;;;;0.18;69.91;101242.66;125880;1320;108874;-77
2021/12/13 10:16:50;;;;;;;44.50;20.40;;;;;;;0.07;70.11;101245.56;125996;1321;108902;-78
2021/12/13 10:20:01;;;;;;;49.60;24.00;;;;;;;-0.05;70.10;101246.02;125790;1319;108719;-77
2021/12/13 10:23:10;;;;;;;51.80;23.00;;;;;;;-0.08;70.24;101245.43;125954;1313;108744;-80
2021/12/13 10:26:18;;;;;;;53.00;24.40;;;;;;;-0.00;70.28;101243.94;126070;1313;108912;-82
2021/12/13 10:29:26;;;;;;;84.10;32.10;;;;;;;0.08;70.39;101244.66;126048;1317;108916;-78
2021/12/13 10:32:35;;;;;;;55.80;23.50;;;;;;;0.11;70.35;101241.05;126307;1314;108749;-81
2021/12/13 10:35:44;;;;;;;46.60;21.60;;;;;;;0.16;70.26;101238.36;126260;1317;107220;-80
2021/12/13 10:38:53;;;;;;;49.40;23.50;;;;;;;0.14;70.23;101236.52;126180;1317;108886;-78
2021/12/13 10:42:04;;;;;;;52.90;24.50;;;;;;;0.13;70.31;101237.77;126095;1317;108740;-80
2021/12/13 10:45:16;;;;;;;55.50;26.20;;;;;;;0.14;70.20;101237.20;126056;1317;108844;-79
2021/12/13 10:48:25;;;;;;;73.20;33.20;;;;;;;0.15;70.18;101241.38;126061;1316;108601;-82
2021/12/13 10:51:35;;;;;;;63.10;28.10;;;;;;;0.10;70.40;101239.14;126188;1317;107733;-82
2021/12/13 10:54:44;;;;;;;66.00;29.10;;;;;;;0.09;70.40;101237.95;126056;1317;107069;-78
2021/12/13 10:57:51;;;;;;;62.60;28.00;;;;;;;0.13;70.36;101239.89;126038;1317;108693;-76
2021/12/13 11:01:01;;;;;;;77.90;32.70;;;;;;;0.18;70.43;101241.80;125999;1317;108786;-78
2021/12/13 11:04:11;;;;;;;67.30;26.80;;;;;;;0.24;70.34;101240.67;126162;1316;108976;-78
2021/12/13 11:07:17;;;;;;;56.90;25.10;;;;;;;0.31;70.18;101235.65;126108;1317;108929;-78
2021/12/13 11:10:26;;;;;;;71.10;30.40;;;;;;;0.40;70.03;101233.71;126139;1316;108709;-78
2021/12/13 11:13:36;;;;;;;61.80;26.30;;;;;;;0.45;70.10;101231.27;126111;1315;108985;-76
2021/12/13 11:16:45;;;;;;;53.40;24.20;;;;;;;0.51;70.20;101232.05;126053;1320;107671;-78
2021/12/13 11:19:53;;;;;;;53.40;24.40;;;;;;;0.58;69.98;101235.42;126022;1316;108840;-77
2021/12/13 11:22:59;;;;;;;51.00;23.30;;;;;;;0.66;70.08;101237.70;126157;1317;108938;-77
2021/12/13 11:26:08;;;;;;;53.50;23.80;;;;;;;0.73;69.92;101232.33;126142;1317;108624;-78
2021/12/13 11:29:15;;;;;;;51.00;22.80;;;;;;;0.74;69.81;101224.21;126136;1315;108936;-77
2021/12/13 11:32:47;;;;;;;54.60;22.90;;;;;;;0.72;69.77;101210.81;126195;1316;108666;-77
2021/12/13 11:36:26;;;;;;;49.10;22.80;;;;;;;0.68;69.69;101212.58;126078;1316;108825;-76
2021/12/13 11:39:51;;;;;;;44.40;20.90;;;;;;;0.63;69.55;101211.91;125981;1317;108988;-78
2021/12/13 11:43:20;;;;;;;54.00;23.50;;;;;;;0.58;69.71;101214.40;126104;1315;109258;-78
2021/12/13 11:47:00;;;;;;;53.70;25.10;;;;;;;0.53;69.68;101214.63;125987;1316;107479;-77
2021/12/13 11:50:23;;;;;;;62.10;25.90;;;;;;;0.43;69.85;101209.96;126126;1316;108823;-75
2021/12/13 11:54:08;;;;;;;59.40;26.90;;;;;;;0.42;69.91;101214.39;126568;1314;108905;-76
2021/12/13 11:57:47;;;;;;;51.40;23.90;;;;;;;0.38;69.96;101220.51;126545;1316;108649;-79
2021/12/13 12:01:45;;;;;;;49.60;22.00;;;;;;;0.41;69.86;101220.41;126490;1313;108875;-79
2021/12/13 12:05:45;;;;;;;50.30;22.50;;;;;;;0.43;69.91;101221.71;125773;1318;107749;-75
2021/12/13 12:09:12;;;;;;;51.60;23.00;;;;;;;0.38;69.98;101215.57;125399;1320;108490;-81
2021/12/13 12:12:41;;;;;;;62.90;26.90;;;;;;;0.40;69.95;101222.00;126476;1312;109043;-76
2021/12/13 12:15:48;;;;;;;67.80;27.60;;;;;;;0.38;69.95;101221.52;126418;1313;108794;-76
2021/12/13 12:18:56;;;;;;;65.30;27.30;;;;;;;0.44;70.01;101213.42;126594;1313;108842;-76
2021/12/13 12:22:04;;;;;;;66.00;26.30;;;;;;;0.49;70.09;101216.54;126557;1312;108682;-77
2021/12/13 12:25:10;;;;;;;61.80;27.30;;;;;;;0.54;69.81;101218.27;126514;1316;108887;-77
2021/12/13 12:28:18;;;;;;;63.10;27.20;;;;;;;0.54;69.84;101212.46;126421;1312;106813;-77
2021/12/13 12:31:30;;;;;;;61.40;26.10;;;;;;;0.59;69.97;101215.59;126292;1313;107649;-76
2021/12/13 12:34:48;;;;;;;111.20;53.20;;;;;;;0.59;69.65;101220.84;126330;1313;108758;-78
2021/12/13 12:38:17;;;;;;;87.90;36.70;;;;;;;0.59;69.58;101227.14;126486;1314;109117;-77
2021/12/13 12:42:02;;;;;;;72.00;30.70;;;;;;;0.53;69.63;101226.02;126340;1314;108934;-77
2021/12/13 12:45:16;;;;;;;68.80;30.30;;;;;;;0.50;69.73;101230.34;126330;1313;106672;-77
2021/12/13 12:48:31;;;;;;;85.10;37.90;;;;;;;0.46;69.62;101226.80;126364;1314;108846;-78
2021/12/13 12:51:37;;;;;;;67.90;29.90;;;;;;;0.40;69.72;101227.77;126291;1313;109616;-76
2021/12/13 12:54:43;;;;;;;115.50;45.20;;;;;;;0.34;69.82;101224.48;126495;1312;109735;-80
2021/12/13 12:57:49;;;;;;;75.90;34.40;;;;;;;0.30;69.74;101226.58;126515;1313;108624;-77
2021/12/13 13:00:59;;;;;;;55.50;26.00;;;;;;;0.27;69.71;101227.44;126481;1313;109115;-84
2021/12/13 13:04:16;;;;;;;54.80;23.20;;;;;;;0.22;69.90;101229.71;126464;1313;108535;-80
2021/12/13 13:07:27;;;;;;;58.40;24.10;;;;;;;0.19;69.79;101223.55;126604;1314;108780;-81
2021/12/13 13:10:48;;;;;;;68.10;27.00;;;;;;;0.14;69.95;101233.90;126567;1313;108911;-81
2021/12/13 13:13:53;;;;;;;57.40;24.40;;;;;;;0.11;69.87;101235.79;126540;1312;108663;-79
2021/12/13 13:17:04;;;;;;;57.90;24.20;;;;;;;0.08;69.74;101241.49;126481;1313;108749;-82
2021/12/13 13:20:15;;;;;;;70.50;29.50;;;;;;;0.01;69.71;101243.15;126594;1313;109608;-78
2021/12/13 13:23:23;;;;;;;67.40;28.70;;;;;;;-0.02;69.88;101247.83;126488;1313;109221;-80
2021/12/13 13:26:32;;;;;;;122.50;41.50;;;;;;;0.02;69.81;101246.14;126562;1313;108785;-78
2021/12/13 13:29:38;;;;;;;63.50;24.00;;;;;;;0.07;69.99;101248.02;126502;1313;106980;-77
2021/12/13 13:32:44;;;;;;;82.00;31.50;;;;;;;0.11;69.99;101249.61;126510;1313;108993;-79
2021/12/13 13:35:50;;;;;;;66.10;27.80;;;;;;;0.15;69.73;101246.64;126510;1313;107049;-73
2021/12/13 13:39:08;;;;;;;59.50;25.90;;;;;;;0.13;69.72;101246.22;126495;1312;108938;-79
2021/12/13 13:42:18;;;;;;;87.60;31.10;;;;;;;0.13;69.78;101248.27;126450;1316;107170;-78
2021/12/13 13:45:27;;;;;;;145.70;42.10;;;;;;;0.14;69.83;101253.52;126402;1313;108895;-78
2021/12/13 13:48:36;;;;;;;101.00;35.90;;;;;;;0.07;69.65;101257.10;126372;1316;106737;-77
2021/12/13 13:51:41;;;;;;;86.10;32.20;;;;;;;-0.04;69.57;101254.58;126512;1313;109170;-79
2021/12/13 13:54:50;;;;;;;90.70;36.20;;;;;;;-0.07;69.86;101258.02;126506;1314;108788;-78
2021/12/13 13:57:58;;;;;;;84.90;32.00;;;;;;;-0.10;69.81;101252.52;126315;1312;108993;-77
2021/12/13 14:01:11;;;;;;;76.30;31.10;;;;;;;-0.16;69.74;101255.23;126346;1312;108955;-75
2021/12/13 14:04:24;;;;;;;72.40;30.10;;;;;;;-0.23;69.75;101256.52;126487;1312;108837;-79
2021/12/13 14:07:32;;;;;;;62.20;25.90;;;;;;;-0.30;69.82;101256.65;126556;1312;108769;-78
2021/12/13 14:10:38;;;;;;;71.40;28.90;;;;;;;-0.36;69.87;101265.09;126344;1314;108331;-77
2021/12/13 14:13:45;;;;;;;66.70;27.20;;;;;;;-0.38;70.17;101262.90;126304;1312;108911;-79
2021/12/13 14:16:53;;;;;;;72.90;30.00;;;;;;;-0.47;69.97;101261.48;126349;1312;108485;-77
2021/12/13 14:20:05;;;;;;;74.90;29.30;;;;;;;-0.56;70.16;101261.63;126090;1313;108941;-77
2021/12/13 14:23:23;;;;;;;79.40;28.90;;;;;;;-0.60;69.90;101266.65;126095;1314;108798;-78
2021/12/13 14:26:31;;;;;;;76.80;29.60;;;;;;;-0.64;70.19;101261.39;126149;1312;106916;-78
2021/12/13 14:29:36;;;;;;;72.50;28.30;;;;;;;-0.64;70.05;101267.67;126108;1313;108879;-79
2021/12/13 14:32:42;;;;;;;69.70;28.50;;;;;;;-0.59;70.30;101267.34;126152;1312;109087;-78
2021/12/13 14:35:53;;;;;;;75.70;26.10;;;;;;;-0.53;70.21;101264.48;126250;1314;109165;-77
2021/12/13 14:39:11;;;;;;;73.30;26.20;;;;;;;-0.44;70.12;101266.08;126224;1313;108770;-76
2021/12/13 14:42:20;;;;;;;68.10;26.90;;;;;;;-0.41;70.12;101270.16;126329;1312;108711;-77
2021/12/13 14:45:25;;;;;;;70.90;28.20;;;;;;;-0.45;70.06;101279.20;126331;1312;108799;-77
2021/12/13 14:48:32;;;;;;;67.80;28.10;;;;;;;-0.47;70.11;101279.11;126404;1314;108552;-76
2021/12/13 14:51:43;;;;;;;67.60;28.30;;;;;;;-0.47;70.14;101276.16;126442;1313;108777;-82
2021/12/13 14:54:52;;;;;;;74.60;28.00;;;;;;;-0.49;69.89;101276.05;126545;1314;108775;-76
2021/12/13 14:58:02;;;;;;;69.30;27.40;;;;;;;-0.53;70.13;101277.06;126531;1312;107455;-74
2021/12/13 15:01:12;;;;;;;107.50;45.30;;;;;;;-0.59;70.08;101278.86;126743;1313;108726;-80
2021/12/13 15:04:22;;;;;;;107.40;41.00;;;;;;;-0.64;70.27;101278.34;126661;1312;108758;-76
2021/12/13 15:07:31;;;;;;;88.60;36.30;;;;;;;-0.69;70.07;101282.71;126538;1313;108883;-77
2021/12/13 15:10:41;;;;;;;86.30;32.60;;;;;;;-0.72;70.20;101288.08;126511;1313;108929;-78
2021/12/13 15:13:50;;;;;;;79.70;33.10;;;;;;;-0.80;70.15;101292.92;126503;1316;107749;-76
2021/12/13 15:17:00;;;;;;;90.90;38.00;;;;;;;-0.87;70.30;101291.75;126411;1312;108843;-80